Time;durP1;ratioP1;P1;durP2;ratioP2;P2;SDS_P1;SDS_P2;PMS_P1;PMS_P2;Temp;Humidity;BMP_temperature;BMP_pressure;BME280_temperature;BME280_humidity;BME280_pressure;Samples;Min_cycle;Max_cycle;Signal;HPM_P1;HPM_P2
2023/08/11 00:01:22;;;;;;;13.20;5.67;;;13.20;99.90;;;;;;1929535;73;25279;-88
2023/08/11 00:08:16;;;;;;;16.50;6.60;;;13.30;99.90;;;;;;1920820;73;25277;-88
2023/08/11 00:11:35;;;;;;;18.60;6.27;;;13.30;99.90;;;;;;1906899;73;25218;-88
2023/08/11 00:14:31;;;;;;;16.83;7.13;;;13.20;99.90;;;;;;1935373;73;25783;-88
2023/08/11 00:21:14;;;;;;;22.23;8.77;;;13.30;99.90;;;;;;1914967;73;25920;-88
2023/08/11 00:24:15;;;;;;;16.07;6.87;;;13.30;99.90;;;;;;1919345;73;25331;-88
2023/08/11 00:27:06;;;;;;;13.87;5.60;;;13.30;99.90;;;;;;1931271;73;25239;-88
2023/08/11 00:43:55;;;;;;;11.57;3.70;;;13.10;99.90;;;;;;1912302;73;26320;-89
2023/08/11 00:50:06;;;;;;;9.30;3.17;;;13.30;99.90;;;;;;1942708;72;28080;-88
2023/08/11 00:53:31;;;;;;;8.40;2.97;;;13.30;99.90;;;;;;1943575;73;25565;-88
2023/08/11 00:56:50;;;;;;;5.73;2.10;;;13.20;99.90;;;;;;1938937;73;25219;-88
2023/08/11 01:00:11;;;;;;;5.17;1.50;;;13.20;99.90;;;;;;1910391;73;25196;-88
2023/08/11 01:03:07;;;;;;;7.07;2.57;;;13.30;99.90;;;;;;1894330;73;25319;-88
2023/08/11 01:12:10;;;;;;;4.87;1.47;;;13.30;99.90;;;;;;1939837;72;26983;-88
2023/08/11 01:18:10;;;;;;;6.93;1.70;;;13.20;99.90;;;;;;1943889;72;27088;-89
2023/08/11 01:34:31;;;;;;;8.67;2.50;;;13.40;99.90;;;;;;1916587;71;27146;-90
2023/08/11 01:40:18;;;;;;;4.43;2.13;;;13.40;99.90;;;;;;1935584;72;26905;-89
2023/08/11 01:47:16;;;;;;;7.57;2.90;;;13.50;99.90;;;;;;1868582;75;25226;-89
2023/08/11 01:50:44;;;;;;;7.77;2.10;;;13.50;99.90;;;;;;1887890;75;25887;-89
2023/08/11 01:53:38;;;;;;;5.67;2.60;;;13.50;99.90;;;;;;1875008;75;25285;-89
2023/08/11 01:56:37;;;;;;;6.40;2.63;;;13.60;99.90;;;;;;1880428;75;25231;-89
2023/08/11 02:03:17;;;;;;;6.17;2.77;;;13.60;99.90;;;;;;1950012;72;26955;-89
2023/08/11 02:06:36;;;;;;;7.40;2.80;;;13.60;99.90;;;;;;1944883;73;25229;-89
2023/08/11 02:13:36;;;;;;;5.27;2.27;;;13.50;99.90;;;;;;1913199;73;25288;-89
2023/08/11 02:16:44;;;;;;;5.43;3.00;;;13.50;99.90;;;;;;1936328;73;25227;-89
2023/08/11 02:23:23;;;;;;;3.67;2.53;;;13.40;99.90;;;;;;1925519;73;25758;-89
2023/08/11 02:26:33;;;;;;;8.83;2.63;;;13.30;99.90;;;;;;1913218;73;25227;-89
2023/08/11 02:29:29;;;;;;;6.83;3.20;;;13.30;99.90;;;;;;1924300;73;25148;-88
2023/08/11 02:32:31;;;;;;;4.70;2.60;;;13.30;99.90;;;;;;1946075;73;25169;-89
2023/08/11 02:35:36;;;;;;;8.50;2.97;;;13.20;99.90;;;;;;1947314;73;25630;-89
2023/08/11 02:39:09;;;;;;;8.43;3.60;;;13.30;99.90;;;;;;1945198;73;25145;-89
2023/08/11 02:45:48;;;;;;;8.83;3.77;;;13.20;99.90;;;;;;1946475;72;30105;-89
2023/08/11 02:48:58;;;;;;;9.90;3.30;;;13.20;99.90;;;;;;1903936;74;25287;-89
2023/08/11 02:52:09;;;;;;;8.67;2.20;;;13.20;99.90;;;;;;1930605;73;25651;-89
2023/08/11 02:59:06;;;;;;;1.47;1.20;;;13.10;99.90;;;;;;1924510;73;25273;-89
2023/08/11 03:06:19;;;;;;;3.10;1.10;;;13.20;99.90;;;;;;1918724;73;25228;-89
2023/08/11 03:13:41;;;;;;;2.03;1.00;;;13.20;99.90;;;;;;1915900;73;25156;-89
2023/08/11 03:39:46;;;;;;;5.00;0.70;;;13.50;99.90;;;;;;1901566;74;25213;-89
2023/08/11 03:50:45;;;;;;;0.60;0.60;;;13.70;99.90;;;;;;1893233;73;25240;-89
2023/08/11 03:58:52;;;;;;;0.60;0.60;;;13.70;99.90;;;;;;1976407;71;32480;-89
2023/08/11 04:15:35;;;;;;;1.87;0.80;;;13.80;99.90;;;;;;1915572;72;27255;-89
2023/08/11 04:25:54;;;;;;;2.23;0.57;;;14.00;99.90;;;;;;1933589;73;25213;-88
2023/08/11 04:29:28;;;;;;;2.83;0.57;;;14.00;99.90;;;;;;1930193;72;25698;-88
2023/08/11 04:36:50;;;;;;;4.67;0.90;;;14.00;99.90;;;;;;1968002;72;25723;-89
2023/08/11 04:40:22;;;;;;;1.43;0.80;;;14.20;99.90;;;;;;1915991;73;25797;-89
2023/08/11 04:47:45;;;;;;;3.10;0.73;;;14.30;99.90;;;;;;1893591;74;25237;-88
2023/08/11 04:57:39;;;;;;;7.97;1.20;;;14.40;99.90;;;;;;1975650;72;31837;-89
2023/08/11 05:00:33;;;;;;;5.93;1.10;;;14.40;99.90;;;;;;1914277;73;25172;-89
2023/08/11 05:03:27;;;;;;;6.97;1.00;;;14.40;99.90;;;;;;1910139;73;25268;-89
2023/08/11 05:13:35;;;;;;;4.83;1.20;;;14.50;99.90;;;;;;1915605;73;25262;-89
2023/08/11 05:17:11;;;;;;;9.37;1.27;;;14.60;99.90;;;;;;1899862;73;25262;-89
2023/08/11 05:23:11;;;;;;;15.17;1.40;;;14.80;99.90;;;;;;1945740;72;29620;-88
2023/08/11 05:54:16;;;;;;;10.57;1.40;;;15.30;99.90;;;;;;1924646;73;25654;-89
2023/08/11 06:00:51;;;;;;;6.40;1.70;;;15.30;99.90;;;;;;1914947;73;25638;-89
2023/08/11 06:12:04;;;;;;;12.30;1.50;;;16.10;99.90;;;;;;1912623;73;25158;-89
2023/08/11 06:15:30;;;;;;;7.50;1.50;;;16.30;99.90;;;;;;1939699;73;25206;-88
2023/08/11 06:19:14;;;;;;;3.90;1.40;;;16.30;99.90;;;;;;1915070;73;25172;-89
2023/08/11 06:22:44;;;;;;;5.47;1.40;;;16.30;99.90;;;;;;1925710;73;25241;-89
2023/08/11 06:26:05;;;;;;;2.43;1.30;;;16.20;99.90;;;;;;1929981;73;25705;-89
2023/08/11 06:36:17;;;;;;;5.00;1.50;;;16.00;99.90;;;;;;1944273;73;25255;-89
2023/08/11 06:39:32;;;;;;;3.67;1.27;;;16.00;99.90;;;;;;1916431;73;25227;-89
2023/08/11 06:43:07;;;;;;;5.57;1.50;;;15.80;99.90;;;;;;1895281;73;25350;-89
2023/08/11 06:46:43;;;;;;;6.03;1.53;;;15.80;99.90;;;;;;1880259;75;25264;-89
2023/08/11 06:53:15;;;;;;;6.30;1.33;;;15.80;99.90;;;;;;1962328;72;28178;-89
2023/08/11 06:59:39;;;;;;;6.20;1.50;;;16.10;99.90;;;;;;1956210;72;28212;-89
2023/08/11 07:02:43;;;;;;;5.63;1.30;;;16.00;99.90;;;;;;1889862;75;25777;-89
2023/08/11 07:06:04;;;;;;;3.57;1.20;;;16.00;99.90;;;;;;1915122;73;25206;-88
2023/08/11 07:09:05;;;;;;;3.23;1.27;;;16.20;99.90;;;;;;1930567;73;25220;-89
2023/08/11 07:12:18;;;;;;;6.17;1.30;;;16.20;99.90;;;;;;1915693;73;25156;-89
2023/08/11 07:16:02;;;;;;;3.30;1.43;;;16.20;99.90;;;;;;1928473;73;25676;-89
2023/08/11 07:19:12;;;;;;;4.30;1.37;;;16.30;99.90;;;;;;1920186;73;25273;-89
2023/08/11 07:35:43;;;;;;;3.13;1.20;;;16.80;99.90;;;;;;1992177;71;27080;-88
2023/08/11 07:42:33;;;;;;;3.57;1.63;;;17.00;99.90;;;;;;1940965;72;27365;-89
2023/08/11 07:45:23;;;;;;;1.40;1.27;;;17.10;99.90;;;;;;1910540;75;25301;-89
2023/08/11 07:48:14;;;;;;;3.17;1.20;;;17.60;99.90;;;;;;1872942;76;25241;-88
2023/08/11 07:54:19;;;;;;;2.47;1.47;;;17.30;99.90;;;;;;1926723;72;27200;-89
2023/08/11 07:57:10;;;;;;;2.07;1.30;;;17.20;99.90;;;;;;1881151;75;25926;-89
2023/08/11 08:00:13;;;;;;;6.93;1.40;;;17.30;99.90;;;;;;1882984;75;25258;-88
2023/08/11 08:03:16;;;;;;;6.20;1.57;;;17.30;99.90;;;;;;1872254;74;25300;-89
2023/08/11 08:06:07;;;;;;;4.37;1.53;;;17.30;99.90;;;;;;1876721;75;25304;-89
2023/08/11 08:08:59;;;;;;;4.77;1.57;;;17.30;99.90;;;;;;1878305;75;25212;-89
2023/08/11 08:11:53;;;;;;;1.87;1.20;;;17.40;99.90;;;;;;1872397;75;25305;-89
2023/08/11 08:14:43;;;;;;;4.33;1.40;;;17.60;99.90;;;;;;1885058;75;25647;-89
2023/08/11 08:17:33;;;;;;;4.23;1.30;;;17.50;99.90;;;;;;1885086;75;25223;-89
2023/08/11 08:33:30;;;;;;;1.93;1.30;;;17.90;99.90;;;;;;1863282;75;28002;-89
2023/08/11 08:39:10;;;;;;;3.83;1.40;;;18.10;99.90;;;;;;1928686;72;27101;-88
2023/08/11 08:42:03;;;;;;;2.60;1.53;;;17.80;99.90;;;;;;1904037;73;25241;-89
2023/08/11 08:44:54;;;;;;;3.30;1.27;;;18.00;99.90;;;;;;1890476;75;25221;-89
2023/08/11 08:47:45;;;;;;;2.43;1.20;;;18.50;99.90;;;;;;1879563;75;25338;-89
2023/08/11 08:50:36;;;;;;;3.60;1.33;;;18.70;99.90;;;;;;1897200;75;25293;-89
2023/08/11 08:53:30;;;;;;;2.37;1.13;;;18.80;99.90;;;;;;1893623;75;25194;-89
2023/08/11 08:59:12;;;;;;;4.80;1.37;;;17.90;99.90;;;;;;1957210;72;27080;-89
2023/08/11 09:02:12;;;;;;;4.70;1.47;;;17.80;99.90;;;;;;1889078;73;25276;-88
2023/08/11 09:05:06;;;;;;;4.20;1.43;;;17.80;99.90;;;;;;1924603;73;25293;-89
2023/08/11 09:07:57;;;;;;;2.67;1.20;;;17.90;99.90;;;;;;1922665;73;25282;-89
2023/08/11 09:13:41;;;;;;;2.53;1.40;;;17.90;99.90;;;;;;1939139;72;29697;-88
2023/08/11 09:16:44;;;;;;;3.33;1.30;;;17.80;99.90;;;;;;1920423;73;25282;-89
2023/08/11 09:19:42;;;;;;;4.40;1.27;;;18.00;99.90;;;;;;1917002;73;25260;-89
2023/08/11 09:22:36;;;;;;;5.73;1.40;;;18.10;99.90;;;;;;1911769;73;25302;-88
2023/08/11 09:28:39;;;;;;;5.57;1.40;;;18.00;99.90;;;;;;1933295;72;27717;-89
2023/08/11 09:34:21;;;;;;;8.17;1.40;;;18.00;99.90;;;;;;1939365;72;27580;-89
2023/08/11 09:37:10;;;;;;;6.33;1.53;;;18.00;99.90;;;;;;1922239;73;25221;-89
2023/08/11 09:40:03;;;;;;;8.30;1.60;;;18.00;99.90;;;;;;1913837;75;25291;-88
2023/08/11 09:45:46;;;;;;;5.13;1.60;;;18.10;99.90;;;;;;1937425;74;28053;-88
2023/08/11 09:48:36;;;;;;;4.80;1.60;;;17.80;99.90;;;;;;1859772;76;25799;-89
2023/08/11 09:51:26;;;;;;;7.07;1.53;;;17.70;99.90;;;;;;1894363;74;25304;-89
2023/08/11 09:54:17;;;;;;;2.80;1.60;;;17.70;99.90;;;;;;1893709;74;25223;-89
2023/08/11 09:57:07;;;;;;;3.97;1.60;;;17.90;99.90;;;;;;1827054;76;25275;-89
2023/08/11 10:00:01;;;;;;;5.47;1.63;;;17.90;99.90;;;;;;1896050;74;25225;-89
2023/08/11 10:02:54;;;;;;;5.60;1.70;;;17.70;99.90;;;;;;1857697;76;25223;-89
2023/08/11 10:05:46;;;;;;;5.50;1.63;;;18.00;99.90;;;;;;1899224;75;25653;-89
2023/08/11 10:08:36;;;;;;;3.37;1.40;;;18.00;99.90;;;;;;1886606;75;25736;-88
2023/08/11 10:11:29;;;;;;;4.03;1.70;;;18.20;99.90;;;;;;1886822;75;25784;-88
2023/08/11 10:14:20;;;;;;;4.97;1.57;;;18.30;99.90;;;;;;1893231;75;25215;-90
2023/08/11 10:17:10;;;;;;;3.97;1.50;;;18.50;99.90;;;;;;1866204;75;25169;-89
2023/08/11 10:22:50;;;;;;;5.60;1.60;;;18.40;99.90;;;;;;1949427;72;27587;-89
2023/08/11 10:25:39;;;;;;;6.30;2.23;;;18.50;99.90;;;;;;1913603;75;25248;-89
2023/08/11 10:28:30;;;;;;;6.90;1.90;;;18.50;99.90;;;;;;1913992;73;25279;-89
2023/08/11 10:31:19;;;;;;;7.17;1.90;;;18.70;99.90;;;;;;1930153;73;25223;-89
2023/08/11 10:34:09;;;;;;;10.80;1.90;;;18.80;99.90;;;;;;1913717;75;25296;-89
2023/08/11 10:37:00;;;;;;;6.47;1.93;;;18.90;99.90;;;;;;1913984;75;25221;-88
2023/08/11 10:39:51;;;;;;;6.27;1.50;;;19.00;99.90;;;;;;1919034;73;25202;-89
2023/08/11 10:42:41;;;;;;;9.07;1.50;;;19.00;99.90;;;;;;1899673;73;25791;-89
2023/08/11 10:45:33;;;;;;;9.57;1.90;;;18.70;99.90;;;;;;1903873;73;25870;-88
2023/08/11 11:14:58;;;;;;;8.47;1.80;;;18.00;99.90;;;;;;1864680;76;27777;-88
2023/08/11 11:20:29;;;;;;;6.80;1.50;;;18.20;99.90;;;;;;1975615;71;26990;-89
2023/08/11 11:26:01;;;;;;;4.00;1.33;;;18.30;99.90;;;;;;1849169;75;27193;-89
2023/08/11 11:28:51;;;;;;;4.87;1.60;;;18.70;99.90;;;;;;1796622;79;25731;-89
2023/08/11 11:34:48;;;;;;;6.53;1.80;;;19.00;99.90;;;;;;1945892;72;27082;-88
2023/08/11 11:37:37;;;;;;;3.70;1.43;;;18.80;99.90;;;;;;1943608;73;25216;-88
2023/08/11 11:40:27;;;;;;;4.60;1.40;;;18.80;99.90;;;;;;1908758;73;25283;-89
2023/08/11 11:43:19;;;;;;;8.57;1.73;;;18.80;99.90;;;;;;1900664;75;25774;-89
2023/08/11 11:46:14;;;;;;;5.67;1.50;;;18.80;99.90;;;;;;1926564;74;25225;-89
2023/08/11 11:49:01;;;;;;;7.10;1.50;;;19.00;99.90;;;;;;1900640;74;25764;-88
2023/08/11 11:51:50;;;;;;;4.67;1.33;;;19.20;99.90;;;;;;1909695;74;25218;-89
2023/08/11 11:54:39;;;;;;;3.20;1.20;;;19.00;99.90;;;;;;1913698;74;25227;-88
2023/08/11 11:57:28;;;;;;;4.07;1.30;;;18.90;99.90;;;;;;1905215;75;25763;-89
2023/08/11 12:00:18;;;;;;;4.03;1.33;;;19.00;99.90;;;;;;1912943;75;25207;-89
2023/08/11 12:03:09;;;;;;;3.20;1.40;;;19.20;99.90;;;;;;1924575;74;25226;-88
2023/08/11 12:19:07;;;;;;;6.07;1.30;;;19.30;99.90;;;;;;1986176;70;27614;-89
2023/08/11 12:24:37;;;;;;;5.30;1.20;;;19.50;99.90;;;;;;1884421;74;27614;-88
2023/08/11 12:27:26;;;;;;;7.63;1.70;;;19.20;99.90;;;;;;1837021;77;25736;-89
2023/08/11 12:30:16;;;;;;;4.33;1.30;;;19.10;99.90;;;;;;1842768;77;25767;-88
2023/08/11 12:33:05;;;;;;;2.20;1.23;;;19.20;99.90;;;;;;1830246;77;25254;-88
2023/08/11 12:35:55;;;;;;;4.23;1.27;;;19.30;99.90;;;;;;1841730;77;25310;-88
2023/08/11 12:38:43;;;;;;;2.87;1.20;;;19.30;99.90;;;;;;1841792;77;25247;-89
2023/08/11 12:44:13;;;;;;;3.70;1.37;;;19.20;99.90;;;;;;1945252;72;27027;-88
2023/08/11 12:47:02;;;;;;;4.23;1.23;;;19.00;99.90;;;;;;1911079;74;25786;-88
2023/08/11 12:49:52;;;;;;;8.60;1.10;;;19.00;99.90;;;;;;1885716;75;25576;-89
2023/08/11 12:52:41;;;;;;;3.97;1.00;;;19.10;99.90;;;;;;1880810;75;25261;-88
2023/08/11 12:55:30;;;;;;;3.67;1.30;;;19.20;99.90;;;;;;1873983;75;25216;-88
2023/08/11 12:58:19;;;;;;;2.87;1.10;;;19.10;99.90;;;;;;1880921;75;25235;-88
2023/08/11 13:01:08;;;;;;;2.13;0.90;;;19.10;99.90;;;;;;1876406;75;25923;-88
2023/08/11 13:03:57;;;;;;;1.07;0.90;;;19.00;99.90;;;;;;1889245;75;25725;-88
2023/08/11 13:06:46;;;;;;;4.83;1.13;;;19.10;99.90;;;;;;1911045;75;25257;-88
2023/08/11 13:09:34;;;;;;;2.00;0.93;;;19.30;99.90;;;;;;1892336;75;25270;-88
2023/08/11 13:12:23;;;;;;;1.50;1.00;;;19.10;99.90;;;;;;1904780;75;25289;-88
2023/08/11 13:15:12;;;;;;;3.73;0.90;;;19.10;99.90;;;;;;1894299;75;26154;-88
2023/08/11 13:18:01;;;;;;;3.23;1.00;;;19.40;99.90;;;;;;1892869;75;25225;-88
2023/08/11 13:20:50;;;;;;;2.80;0.70;;;19.60;99.90;;;;;;1892295;75;25193;-88
2023/08/11 13:23:39;;;;;;;0.97;0.70;;;19.60;99.90;;;;;;1910977;75;25715;-89
2023/08/11 13:26:28;;;;;;;2.47;0.90;;;19.50;99.90;;;;;;1890838;75;25761;-88
2023/08/11 13:29:17;;;;;;;3.30;1.17;;;19.30;99.90;;;;;;1900667;75;25288;-88
2023/08/11 13:45:10;;;;;;;2.00;1.03;;;18.90;99.90;;;;;;1845778;76;28327;-88
2023/08/11 13:47:59;;;;;;;1.50;0.90;;;19.00;99.90;;;;;;1868587;75;25278;-88
2023/08/11 13:53:30;;;;;;;3.50;1.10;;;18.80;99.90;;;;;;1925392;72;27762;-88
2023/08/11 14:09:45;;;;;;;3.20;1.00;;;18.90;99.90;;;;;;1919576;72;27750;-88
2023/08/11 14:15:13;;;;;;;4.60;1.33;;;18.90;99.90;;;;;;1934307;72;27037;-89
2023/08/11 14:18:06;;;;;;;5.93;1.13;;;19.00;99.90;;;;;;1865330;75;25231;-88
2023/08/11 14:20:55;;;;;;;2.17;1.00;;;19.00;99.90;;;;;;1860995;76;25337;-89
2023/08/11 14:37:40;;;;;;;3.57;1.10;;;19.20;99.90;;;;;;1876271;74;26369;-87
2023/08/11 14:40:29;;;;;;;4.27;1.23;;;19.10;99.90;;;;;;1895194;74;25342;-90
2023/08/11 14:46:10;;;;;;;2.07;0.90;;;19.10;99.90;;;;;;1945611;72;26926;-88
2023/08/11 14:48:59;;;;;;;1.63;0.83;;;19.20;99.90;;;;;;1929427;74;25261;-88
2023/08/11 14:51:48;;;;;;;3.17;0.93;;;19.10;99.90;;;;;;1918749;74;25779;-88
2023/08/11 14:54:37;;;;;;;1.30;0.80;;;19.20;99.90;;;;;;1930431;74;25224;-88
2023/08/11 14:57:26;;;;;;;3.43;1.00;;;19.10;99.90;;;;;;1915394;72;25299;-89
2023/08/11 15:00:17;;;;;;;2.03;1.00;;;19.10;99.90;;;;;;1913063;72;25738;-88
2023/08/11 15:03:06;;;;;;;2.47;1.10;;;19.10;99.90;;;;;;1920458;73;25296;-88
2023/08/11 15:05:54;;;;;;;4.83;1.23;;;19.10;99.90;;;;;;1915260;74;25362;-88
2023/08/11 15:08:43;;;;;;;3.03;0.90;;;19.00;99.90;;;;;;1923869;74;25994;-88
2023/08/11 15:14:13;;;;;;;2.80;0.90;;;19.00;99.90;;;;;;1928992;72;28106;-89
2023/08/11 15:17:01;;;;;;;5.40;0.90;;;19.00;99.90;;;;;;1871608;76;25293;-88
2023/08/11 15:19:51;;;;;;;4.47;0.80;;;19.00;99.90;;;;;;1839319;77;25306;-88
2023/08/11 15:22:40;;;;;;;3.50;1.00;;;19.10;99.90;;;;;;1896004;74;25276;-88
2023/08/11 15:25:29;;;;;;;4.33;1.10;;;19.10;99.90;;;;;;1865226;76;25230;-88
2023/08/11 15:28:18;;;;;;;3.90;0.97;;;19.10;99.90;;;;;;1834622;77;25727;-88
2023/08/11 15:31:06;;;;;;;2.23;1.00;;;18.90;99.90;;;;;;1867024;76;25257;-88
2023/08/11 15:33:55;;;;;;;3.70;1.10;;;19.00;99.90;;;;;;1846046;76;25734;-88
2023/08/11 15:36:44;;;;;;;1.63;0.80;;;19.20;99.90;;;;;;1822999;76;25274;-88
2023/08/11 15:39:33;;;;;;;1.60;1.00;;;19.20;99.90;;;;;;1823171;77;25275;-88
2023/08/11 15:42:22;;;;;;;1.07;0.97;;;19.20;99.90;;;;;;1844550;76;25306;-88
2023/08/11 15:45:12;;;;;;;3.03;1.17;;;19.20;99.90;;;;;;1791048;78;25769;-87
2023/08/11 15:48:00;;;;;;;2.87;0.90;;;19.20;99.90;;;;;;1880103;75;25239;-87
2023/08/11 16:04:46;;;;;;;2.13;0.93;;;19.20;99.90;;;;;;1950168;72;26404;-88
2023/08/11 16:21:05;;;;;;;3.93;1.40;;;19.00;99.90;;;;;;1926856;72;27422;-88
2023/08/11 16:26:40;;;;;;;7.77;1.30;;;18.70;99.90;;;;;;1956754;72;27739;-88
2023/08/11 16:32:44;;;;;;;4.07;1.10;;;18.80;99.90;;;;;;1978000;71;26676;-88
2023/08/11 16:38:17;;;;;;;7.03;1.30;;;18.70;99.90;;;;;;1917679;74;27409;-89
2023/08/11 16:41:06;;;;;;;3.67;1.20;;;18.50;99.90;;;;;;1880584;75;25857;-88
2023/08/11 16:43:55;;;;;;;5.20;1.07;;;18.40;99.90;;;;;;1863105;76;25266;-89
2023/08/11 16:46:43;;;;;;;2.07;1.10;;;18.40;99.90;;;;;;1861531;77;25858;-88
2023/08/11 16:49:32;;;;;;;6.90;1.30;;;18.40;99.90;;;;;;1855883;76;25218;-88
2023/08/11 16:52:21;;;;;;;3.57;1.20;;;18.30;99.90;;;;;;1864975;76;25274;-88
2023/08/11 16:55:10;;;;;;;4.23;1.27;;;18.30;99.90;;;;;;1863373;76;25323;-88
2023/08/11 16:57:59;;;;;;;6.03;1.23;;;18.30;99.90;;;;;;1855983;77;25297;-88
2023/08/11 17:00:49;;;;;;;3.30;1.47;;;18.20;99.90;;;;;;1873153;76;25236;-88
2023/08/11 17:03:38;;;;;;;4.43;1.27;;;18.20;99.90;;;;;;1848571;77;25231;-88
2023/08/11 17:06:27;;;;;;;7.27;1.30;;;18.20;99.90;;;;;;1859311;76;25252;-88
2023/08/11 17:13:00;;;;;;;8.17;1.40;;;18.20;99.90;;;;;;1938533;72;27023;-88
2023/08/11 17:15:49;;;;;;;4.77;1.20;;;18.10;99.90;;;;;;1945084;72;25896;-88
2023/08/11 17:18:38;;;;;;;2.20;1.20;;;18.00;99.90;;;;;;1982403;72;25238;-88
2023/08/11 17:21:27;;;;;;;6.07;1.43;;;17.90;99.90;;;;;;1963235;72;25230;-88
2023/08/11 17:24:15;;;;;;;3.67;1.20;;;17.80;99.90;;;;;;1984979;72;25222;-88
2023/08/11 17:29:48;;;;;;;9.10;1.33;;;17.70;99.90;;;;;;1951340;72;27455;-88
2023/08/11 17:32:38;;;;;;;4.57;1.43;;;17.60;99.90;;;;;;1938271;73;25285;-89
2023/08/11 17:35:26;;;;;;;2.73;1.20;;;17.50;99.90;;;;;;1923045;73;25880;-89
2023/08/11 17:38:15;;;;;;;3.80;1.30;;;17.50;99.90;;;;;;1937794;73;25294;-88
2023/08/11 17:41:03;;;;;;;2.97;1.30;;;17.40;99.90;;;;;;1927621;73;25840;-88
2023/08/11 17:43:52;;;;;;;5.53;1.70;;;17.30;99.90;;;;;;1898146;73;25252;-89
2023/08/11 17:46:41;;;;;;;2.93;1.33;;;17.20;99.90;;;;;;1870488;75;25259;-88
2023/08/11 17:49:29;;;;;;;6.47;1.63;;;17.10;99.90;;;;;;1872402;75;25635;-89
2023/08/11 17:52:17;;;;;;;5.77;1.27;;;17.00;99.90;;;;;;1866572;76;25298;-88
2023/08/11 17:55:07;;;;;;;5.03;1.50;;;17.10;99.90;;;;;;1858183;76;25909;-88
2023/08/11 17:57:56;;;;;;;2.50;1.30;;;17.00;99.90;;;;;;1843539;76;25306;-88
2023/08/11 18:13:56;;;;;;;3.77;1.40;;;16.90;99.90;;;;;;1889308;74;28444;-88
2023/08/11 18:19:39;;;;;;;8.70;1.57;;;16.50;99.90;;;;;;1995360;71;27143;-88
2023/08/11 18:22:27;;;;;;;5.37;1.37;;;16.50;99.90;;;;;;1918255;73;25260;-89
2023/08/11 18:25:16;;;;;;;6.50;1.57;;;16.30;99.90;;;;;;1926155;73;25292;-89
2023/08/11 18:28:05;;;;;;;12.07;1.67;;;16.30;99.90;;;;;;1928599;73;25242;-89
2023/08/11 18:30:59;;;;;;;3.87;1.20;;;16.30;99.90;;;;;;1937363;73;25215;-89
2023/08/11 18:33:47;;;;;;;2.60;1.50;;;16.20;99.90;;;;;;1931647;73;25265;-89
2023/08/11 18:39:16;;;;;;;4.93;1.50;;;16.00;99.90;;;;;;1917999;72;27344;-89
2023/08/11 18:45:19;;;;;;;9.80;1.57;;;15.90;99.90;;;;;;1978627;71;26873;-88
2023/08/11 18:50:55;;;;;;;5.70;1.50;;;15.80;99.90;;;;;;1958268;72;27072;-88
2023/08/11 18:53:44;;;;;;;7.13;1.67;;;15.80;99.90;;;;;;1914609;73;25754;-89
2023/08/11 18:56:34;;;;;;;13.57;1.90;;;15.80;99.90;;;;;;1917925;73;25242;-89
2023/08/11 18:59:22;;;;;;;6.63;1.53;;;15.70;99.90;;;;;;1913918;75;25241;-88
2023/08/11 19:02:11;;;;;;;7.53;1.60;;;15.70;99.90;;;;;;1925664;73;25296;-88
2023/08/11 19:04:59;;;;;;;8.13;1.93;;;15.60;99.90;;;;;;1942369;73;25331;-88
2023/08/11 19:07:48;;;;;;;3.73;1.40;;;15.70;99.90;;;;;;1914684;73;25277;-88
2023/08/11 19:10:37;;;;;;;4.87;1.40;;;15.70;99.90;;;;;;1928130;73;25308;-89
2023/08/11 19:13:25;;;;;;;9.30;1.50;;;15.60;99.90;;;;;;1915374;73;25503;-88
2023/08/11 19:16:14;;;;;;;8.23;1.57;;;15.60;99.90;;;;;;1915655;73;25725;-88
2023/08/11 19:21:43;;;;;;;11.33;1.57;;;15.40;99.90;;;;;;1981796;71;27000;-89
2023/08/11 19:24:32;;;;;;;7.93;2.03;;;15.40;99.90;;;;;;1948692;72;25292;-89
2023/08/11 19:27:21;;;;;;;6.43;1.67;;;15.40;99.90;;;;;;1946754;72;25225;-89
2023/08/11 19:30:12;;;;;;;8.07;1.67;;;15.40;99.90;;;;;;1965510;71;25228;-89
2023/08/11 19:35:47;;;;;;;8.53;1.93;;;15.30;99.90;;;;;;1936043;72;27038;-89
2023/08/11 19:38:41;;;;;;;7.03;1.93;;;15.30;99.90;;;;;;1887763;75;25351;-89
2023/08/11 19:41:27;;;;;;;7.13;1.67;;;15.30;99.90;;;;;;1886912;75;25832;-89
2023/08/11 19:44:16;;;;;;;7.20;1.40;;;15.30;99.90;;;;;;1866115;76;25953;-89
2023/08/11 19:47:05;;;;;;;11.23;2.10;;;15.30;99.90;;;;;;1876542;75;25919;-89
2023/08/11 19:49:55;;;;;;;8.23;1.83;;;15.30;99.90;;;;;;1875006;76;25247;-89
2023/08/11 19:52:44;;;;;;;4.90;1.97;;;15.30;99.90;;;;;;1868749;76;25242;-88
2023/08/11 19:55:33;;;;;;;10.97;1.87;;;15.30;99.90;;;;;;1864793;76;25253;-89
2023/08/11 19:58:22;;;;;;;4.63;1.50;;;15.30;99.90;;;;;;1873839;76;25626;-89
2023/08/11 20:01:12;;;;;;;6.87;1.87;;;15.30;99.90;;;;;;1876937;76;25698;-89
2023/08/11 20:07:20;;;;;;;6.93;1.73;;;15.30;99.90;;;;;;1989271;71;27095;-89
2023/08/11 20:10:10;;;;;;;3.50;1.33;;;15.30;99.90;;;;;;1969562;72;25283;-89
2023/08/11 20:13:00;;;;;;;6.43;1.60;;;15.30;99.90;;;;;;2033714;69;25218;-89
2023/08/11 20:15:48;;;;;;;6.03;1.60;;;15.30;99.90;;;;;;2043714;69;25757;-89
2023/08/11 20:31:45;;;;;;;9.43;1.70;;;15.40;99.90;;;;;;1847696;76;27643;-89
2023/08/11 20:37:32;;;;;;;9.63;1.80;;;15.40;99.90;;;;;;1946368;72;27137;-89
2023/08/11 20:40:22;;;;;;;4.80;1.60;;;15.50;99.90;;;;;;1900995;75;25239;-89
2023/08/11 20:43:10;;;;;;;6.40;1.37;;;15.50;99.90;;;;;;1877813;75;25374;-88
2023/08/11 20:46:00;;;;;;;6.47;1.67;;;15.60;99.90;;;;;;1831397;78;25354;-89
2023/08/11 20:48:50;;;;;;;10.50;1.90;;;15.60;99.90;;;;;;1793818;79;25881;-89
2023/08/11 20:51:38;;;;;;;8.03;2.03;;;15.60;99.90;;;;;;1857025;75;25261;-89
2023/08/11 21:32:32;;;;;;;7.00;1.63;;;15.60;99.90;;;;;;1952691;72;26364;-88
2023/08/11 21:48:54;;;;;;;5.10;1.63;;;15.60;99.90;;;;;;1942545;72;27568;-88
2023/08/11 21:51:42;;;;;;;5.60;1.80;;;15.50;99.90;;;;;;1916427;73;25252;-89
2023/08/11 21:57:23;;;;;;;6.20;1.47;;;15.60;99.90;;;;;;1959868;72;26976;-88
2023/08/11 22:00:13;;;;;;;5.67;1.67;;;15.60;99.90;;;;;;1913510;73;25301;-89
2023/08/11 22:03:02;;;;;;;5.93;1.60;;;15.60;99.90;;;;;;1874078;74;25729;-89
2023/08/11 22:05:50;;;;;;;4.23;1.40;;;15.60;99.90;;;;;;1924480;73;25245;-88
2023/08/11 22:08:40;;;;;;;3.83;1.30;;;15.60;99.90;;;;;;1856098;75;25274;-89
2023/08/11 22:11:30;;;;;;;5.17;1.80;;;15.60;99.90;;;;;;1894244;75;25280;-89
2023/08/11 22:14:20;;;;;;;6.57;1.63;;;15.60;99.90;;;;;;1881308;75;25643;-89
2023/08/11 22:17:09;;;;;;;8.70;1.73;;;15.60;99.90;;;;;;1907726;75;25922;-88
2023/08/11 22:19:58;;;;;;;8.03;1.53;;;15.60;99.90;;;;;;1885166;75;25292;-89
2023/08/11 22:22:47;;;;;;;4.17;1.40;;;15.50;99.90;;;;;;1899203;75;25223;-89
2023/08/11 22:28:29;;;;;;;8.67;1.43;;;15.50;99.90;;;;;;1954603;72;27046;-89
2023/08/11 22:31:19;;;;;;;3.87;1.50;;;15.60;99.90;;;;;;1913704;73;25284;-89
2023/08/11 22:34:08;;;;;;;2.97;1.30;;;15.60;99.90;;;;;;1935243;73;25217;-89
2023/08/11 22:36:59;;;;;;;3.53;1.50;;;15.60;99.90;;;;;;1926386;73;25220;-89
2023/08/11 22:39:49;;;;;;;8.23;1.47;;;15.50;99.90;;;;;;1924091;73;25230;-89
2023/08/11 22:45:31;;;;;;;5.27;1.37;;;15.60;99.90;;;;;;1950888;72;26915;-88
2023/08/11 22:48:30;;;;;;;4.47;1.47;;;15.60;99.90;;;;;;1859597;75;25278;-88
2023/08/11 22:51:18;;;;;;;5.83;1.90;;;15.60;99.90;;;;;;1901901;72;25222;-88
2023/08/11 22:54:07;;;;;;;7.07;1.50;;;15.60;99.90;;;;;;1916321;73;25232;-88
2023/08/11 22:56:56;;;;;;;10.60;1.70;;;15.60;99.90;;;;;;1923890;72;25707;-89
2023/08/11 22:59:48;;;;;;;5.53;1.60;;;15.60;99.90;;;;;;1913541;72;25549;-88
2023/08/11 23:02:37;;;;;;;6.40;1.63;;;15.60;99.90;;;;;;1935373;74;25187;-88
2023/08/11 23:05:26;;;;;;;6.33;1.50;;;15.70;99.90;;;;;;1934063;72;25563;-88
2023/08/11 23:08:16;;;;;;;5.40;2.23;;;15.70;99.90;;;;;;1921068;74;25302;-89
2023/08/11 23:11:05;;;;;;;4.80;1.50;;;15.70;99.90;;;;;;1918793;73;26573;-88
2023/08/11 23:13:56;;;;;;;6.63;1.90;;;15.70;99.90;;;;;;1934046;73;25320;-89
2023/08/11 23:16:45;;;;;;;5.70;1.50;;;15.70;99.90;;;;;;1871795;75;25235;-88
2023/08/11 23:19:34;;;;;;;7.70;1.90;;;15.80;99.90;;;;;;1862288;76;25619;-88
2023/08/11 23:22:25;;;;;;;5.00;1.40;;;15.80;99.90;;;;;;1914709;74;25215;-88
2023/08/11 23:25:13;;;;;;;5.53;1.57;;;15.80;99.90;;;;;;1885231;75;25787;-88
2023/08/11 23:28:01;;;;;;;6.90;1.77;;;15.80;99.90;;;;;;1933790;74;25228;-88
2023/08/11 23:30:50;;;;;;;10.97;2.10;;;15.80;99.90;;;;;;1919522;73;25291;-88
2023/08/11 23:36:32;;;;;;;9.43;1.83;;;15.80;99.90;;;;;;1951122;72;27745;-89
2023/08/11 23:39:23;;;;;;;5.80;2.00;;;15.80;99.90;;;;;;1944069;73;25316;-89
2023/08/11 23:42:11;;;;;;;5.60;1.70;;;15.80;99.90;;;;;;1920235;73;25348;-89
2023/08/11 23:45:05;;;;;;;3.87;1.70;;;15.80;99.90;;;;;;1900405;74;25268;-89
2023/08/11 23:47:50;;;;;;;5.87;2.00;;;15.80;99.90;;;;;;1895366;74;25342;-89
2023/08/11 23:50:39;;;;;;;8.20;1.90;;;15.80;99.90;;;;;;1918428;73;25832;-89
2023/08/11 23:53:47;;;;;;;6.80;1.87;;;15.70;99.90;;;;;;1902142;73;25291;-89
2023/08/11 23:56:35;;;;;;;6.97;1.90;;;15.60;99.90;;;;;;1901246;73;25289;-88